sensor_id;sensor_type;location;lat;lon;timestamp;pressure;altitude;pressure_sealevel;temperature;humidity
73600;BME280;61877;48.246;9.220;2023-08-06T00:00:54;93522.03;;;13.60;100.00
73600;BME280;61877;48.246;9.220;2023-08-06T00:03:21;93521.91;;;13.50;100.00
73600;BME280;61877;48.246;9.220;2023-08-06T00:05:47;93521.06;;;13.42;99.90
73600;BME280;61877;48.246;9.220;2023-08-06T00:08:12;93509.47;;;13.35;100.00
73600;BME280;61877;48.246;9.220;2023-08-06T00:10:39;93510.63;;;13.37;99.22
73600;BME280;61877;48.246;9.220;2023-08-06T00:13:04;93501.19;;;13.21;99.59
73600;BME280;61877;48.246;9.220;2023-08-06T00:15:30;93506.44;;;13.10;100.00
73600;BME280;61877;48.246;9.220;2023-08-06T00:17:55;93510.84;;;12.95;100.00
73600;BME280;61877;48.246;9.220;2023-08-06T00:20:22;93515.44;;;12.95;100.00
73600;BME280;61877;48.246;9.220;2023-08-06T00:22:47;93500.78;;;12.89;100.00
73600;BME280;61877;48.246;9.220;2023-08-06T00:25:12;93507.63;;;12.83;100.00
73600;BME280;61877;48.246;9.220;2023-08-06T00:27:38;93509.00;;;12.73;100.00
73600;BME280;61877;48.246;9.220;2023-08-06T00:30:04;93495.47;;;12.66;100.00
73600;BME280;61877;48.246;9.220;2023-08-06T00:32:29;93486.22;;;12.64;100.00
73600;BME280;61877;48.246;9.220;2023-08-06T00:34:55;93479.91;;;12.53;100.00
73600;BME280;61877;48.246;9.220;2023-08-06T00:37:21;93483.19;;;12.39;100.00
73600;BME280;61877;48.246;9.220;2023-08-06T00:39:47;93471.84;;;12.27;100.00
73600;BME280;61877;48.246;9.220;2023-08-06T00:42:12;93471.03;;;12.23;100.00
73600;BME280;61877;48.246;9.220;2023-08-06T00:44:38;93471.75;;;12.20;100.00
73600;BME280;61877;48.246;9.220;2023-08-06T00:47:04;93468.94;;;12.13;100.00
73600;BME280;61877;48.246;9.220;2023-08-06T00:49:30;93469.91;;;12.01;100.00
73600;BME280;61877;48.246;9.220;2023-08-06T00:51:56;93472.13;;;11.96;100.00
73600;BME280;61877;48.246;9.220;2023-08-06T00:54:23;93481.16;;;11.84;100.00
73600;BME280;61877;48.246;9.220;2023-08-06T00:56:49;93472.22;;;11.77;100.00
73600;BME280;61877;48.246;9.220;2023-08-06T00:59:14;93467.94;;;11.72;100.00
73600;BME280;61877;48.246;9.220;2023-08-06T01:01:40;93474.34;;;11.67;100.00
73600;BME280;61877;48.246;9.220;2023-08-06T01:04:05;93478.91;;;11.63;100.00
73600;BME280;61877;48.246;9.220;2023-08-06T01:06:39;93483.03;;;11.61;100.00
73600;BME280;61877;48.246;9.220;2023-08-06T01:09:21;93471.84;;;11.55;100.00
73600;BME280;61877;48.246;9.220;2023-08-06T01:11:59;93470.63;;;11.53;100.00
73600;BME280;61877;48.246;9.220;2023-08-06T01:14:33;93471.41;;;11.53;100.00
73600;BME280;61877;48.246;9.220;2023-08-06T01:17:04;93482.94;;;11.54;100.00
73600;BME280;61877;48.246;9.220;2023-08-06T01:19:29;93476.06;;;11.56;100.00
73600;BME280;61877;48.246;9.220;2023-08-06T01:21:56;93476.22;;;11.63;100.00
73600;BME280;61877;48.246;9.220;2023-08-06T01:24:22;93473.22;;;11.68;100.00
73600;BME280;61877;48.246;9.220;2023-08-06T01:26:52;93473.75;;;11.78;100.00
73600;BME280;61877;48.246;9.220;2023-08-06T01:29:23;93463.56;;;11.87;100.00
73600;BME280;61877;48.246;9.220;2023-08-06T01:31:51;93459.78;;;11.91;100.00
73600;BME280;61877;48.246;9.220;2023-08-06T01:34:20;93464.13;;;11.99;100.00
73600;BME280;61877;48.246;9.220;2023-08-06T01:36:46;93462.94;;;11.97;100.00
73600;BME280;61877;48.246;9.220;2023-08-06T01:39:13;93455.31;;;12.02;100.00
73600;BME280;61877;48.246;9.220;2023-08-06T01:41:38;93464.66;;;12.08;100.00
73600;BME280;61877;48.246;9.220;2023-08-06T01:44:05;93463.19;;;12.14;100.00
73600;BME280;61877;48.246;9.220;2023-08-06T01:46:30;93458.91;;;12.10;100.00
73600;BME280;61877;48.246;9.220;2023-08-06T01:48:55;93457.69;;;12.04;100.00
73600;BME280;61877;48.246;9.220;2023-08-06T01:51:21;93458.75;;;11.99;100.00
73600;BME280;61877;48.246;9.220;2023-08-06T01:53:46;93457.16;;;11.95;100.00
73600;BME280;61877;48.246;9.220;2023-08-06T01:56:13;93453.63;;;11.91;100.00
73600;BME280;61877;48.246;9.220;2023-08-06T01:58:38;93453.88;;;11.82;100.00
73600;BME280;61877;48.246;9.220;2023-08-06T02:01:04;93445.81;;;11.82;100.00
73600;BME280;61877;48.246;9.220;2023-08-06T02:03:29;93446.38;;;11.68;100.00
73600;BME280;61877;48.246;9.220;2023-08-06T02:05:54;93438.59;;;11.63;100.00
73600;BME280;61877;48.246;9.220;2023-08-06T02:08:20;93445.38;;;11.57;100.00
73600;BME280;61877;48.246;9.220;2023-08-06T02:10:45;93438.31;;;11.49;100.00
73600;BME280;61877;48.246;9.220;2023-08-06T02:13:12;93432.06;;;11.42;100.00
73600;BME280;61877;48.246;9.220;2023-08-06T02:15:42;93415.47;;;11.36;100.00
73600;BME280;61877;48.246;9.220;2023-08-06T02:18:07;93404.22;;;11.31;100.00
73600;BME280;61877;48.246;9.220;2023-08-06T02:20:33;93398.03;;;11.27;100.00
73600;BME280;61877;48.246;9.220;2023-08-06T02:22:58;93394.94;;;11.25;100.00
73600;BME280;61877;48.246;9.220;2023-08-06T02:25:24;93397.97;;;11.23;100.00
73600;BME280;61877;48.246;9.220;2023-08-06T02:27:49;93402.34;;;11.31;100.00
73600;BME280;61877;48.246;9.220;2023-08-06T02:30:16;93401.22;;;11.32;100.00
73600;BME280;61877;48.246;9.220;2023-08-06T02:32:41;93401.91;;;11.29;100.00
73600;BME280;61877;48.246;9.220;2023-08-06T02:35:07;93404.13;;;11.24;100.00
73600;BME280;61877;48.246;9.220;2023-08-06T02:37:33;93403.28;;;11.20;100.00
73600;BME280;61877;48.246;9.220;2023-08-06T02:39:58;93412.84;;;11.17;100.00
73600;BME280;61877;48.246;9.220;2023-08-06T02:42:24;93417.72;;;11.12;100.00
73600;BME280;61877;48.246;9.220;2023-08-06T02:44:49;93416.09;;;11.07;100.00
73600;BME280;61877;48.246;9.220;2023-08-06T02:47:16;93411.13;;;11.09;100.00
73600;BME280;61877;48.246;9.220;2023-08-06T02:49:41;93403.81;;;11.06;100.00
73600;BME280;61877;48.246;9.220;2023-08-06T02:52:07;93403.72;;;11.03;100.00
73600;BME280;61877;48.246;9.220;2023-08-06T02:54:32;93403.34;;;11.01;100.00
73600;BME280;61877;48.246;9.220;2023-08-06T02:56:58;93402.56;;;11.00;100.00
73600;BME280;61877;48.246;9.220;2023-08-06T02:59:23;93403.38;;;11.04;100.00
73600;BME280;61877;48.246;9.220;2023-08-06T03:01:48;93396.97;;;11.09;100.00
73600;BME280;61877;48.246;9.220;2023-08-06T03:04:15;93399.28;;;11.10;100.00
73600;BME280;61877;48.246;9.220;2023-08-06T03:06:40;93398.50;;;11.10;100.00
73600;BME280;61877;48.246;9.220;2023-08-06T03:09:06;93389.38;;;11.14;100.00
73600;BME280;61877;48.246;9.220;2023-08-06T03:11:31;93389.78;;;11.16;100.00
73600;BME280;61877;48.246;9.220;2023-08-06T03:13:57;93376.00;;;11.18;100.00
73600;BME280;61877;48.246;9.220;2023-08-06T03:16:22;93375.56;;;11.12;100.00
73600;BME280;61877;48.246;9.220;2023-08-06T03:18:47;93375.50;;;11.09;100.00
73600;BME280;61877;48.246;9.220;2023-08-06T03:21:14;93378.16;;;11.09;100.00
73600;BME280;61877;48.246;9.220;2023-08-06T03:23:39;93377.44;;;11.12;100.00
73600;BME280;61877;48.246;9.220;2023-08-06T03:26:05;93374.13;;;11.18;100.00
73600;BME280;61877;48.246;9.220;2023-08-06T03:28:30;93378.03;;;11.24;100.00
73600;BME280;61877;48.246;9.220;2023-08-06T03:30:59;93375.47;;;11.31;100.00
73600;BME280;61877;48.246;9.220;2023-08-06T03:33:25;93375.97;;;11.37;100.00
73600;BME280;61877;48.246;9.220;2023-08-06T03:35:50;93369.94;;;11.43;100.00
73600;BME280;61877;48.246;9.220;2023-08-06T03:38:17;93370.88;;;11.54;100.00
73600;BME280;61877;48.246;9.220;2023-08-06T03:40:42;93372.88;;;11.61;100.00
73600;BME280;61877;48.246;9.220;2023-08-06T03:43:07;93374.94;;;11.67;100.00
73600;BME280;61877;48.246;9.220;2023-08-06T03:45:33;93375.13;;;11.78;100.00
73600;BME280;61877;48.246;9.220;2023-08-06T03:47:58;93372.91;;;11.84;100.00
73600;BME280;61877;48.246;9.220;2023-08-06T03:50:24;93376.09;;;11.93;100.00
73600;BME280;61877;48.246;9.220;2023-08-06T03:52:49;93373.50;;;12.00;100.00
73600;BME280;61877;48.246;9.220;2023-08-06T03:55:16;93378.16;;;12.03;100.00
73600;BME280;61877;48.246;9.220;2023-08-06T03:57:41;93373.97;;;12.05;100.00
73600;BME280;61877;48.246;9.220;2023-08-06T04:00:07;93374.78;;;12.09;100.00
73600;BME280;61877;48.246;9.220;2023-08-06T04:02:33;93378.69;;;12.12;100.00
73600;BME280;61877;48.246;9.220;2023-08-06T04:04:58;93373.00;;;12.17;100.00
73600;BME280;61877;48.246;9.220;2023-08-06T04:07:24;93380.31;;;12.20;100.00
73600;BME280;61877;48.246;9.220;2023-08-06T04:09:53;93380.31;;;12.20;100.00
73600;BME280;61877;48.246;9.220;2023-08-06T04:12:20;93375.41;;;12.25;100.00
73600;BME280;61877;48.246;9.220;2023-08-06T04:14:46;93378.81;;;12.22;100.00
73600;BME280;61877;48.246;9.220;2023-08-06T04:17:11;93381.91;;;12.24;100.00
73600;BME280;61877;48.246;9.220;2023-08-06T04:19:39;93386.97;;;12.29;100.00
73600;BME280;61877;48.246;9.220;2023-08-06T04:22:05;93389.66;;;12.29;100.00
73600;BME280;61877;48.246;9.220;2023-08-06T04:24:30;93394.69;;;12.31;100.00
73600;BME280;61877;48.246;9.220;2023-08-06T04:26:56;93382.44;;;12.33;100.00
73600;BME280;61877;48.246;9.220;2023-08-06T04:29:22;93392.09;;;12.38;100.00
73600;BME280;61877;48.246;9.220;2023-08-06T04:31:48;93388.25;;;12.39;100.00
73600;BME280;61877;48.246;9.220;2023-08-06T04:34:13;93393.69;;;12.42;100.00
73600;BME280;61877;48.246;9.220;2023-08-06T04:36:39;93390.63;;;12.44;100.00
73600;BME280;61877;48.246;9.220;2023-08-06T04:39:04;93374.09;;;12.45;100.00
73600;BME280;61877;48.246;9.220;2023-08-06T04:41:29;93364.13;;;12.46;100.00
73600;BME280;61877;48.246;9.220;2023-08-06T04:43:56;93370.25;;;12.43;100.00
73600;BME280;61877;48.246;9.220;2023-08-06T04:46:23;93361.44;;;12.46;100.00
73600;BME280;61877;48.246;9.220;2023-08-06T04:48:48;93371.78;;;12.44;100.00
73600;BME280;61877;48.246;9.220;2023-08-06T04:51:14;93370.97;;;12.40;100.00
73600;BME280;61877;48.246;9.220;2023-08-06T04:53:40;93374.88;;;12.46;100.00
73600;BME280;61877;48.246;9.220;2023-08-06T04:56:05;93369.19;;;12.51;100.00
73600;BME280;61877;48.246;9.220;2023-08-06T04:58:30;93369.25;;;12.54;100.00
73600;BME280;61877;48.246;9.220;2023-08-06T05:00:56;93372.25;;;12.49;100.00
73600;BME280;61877;48.246;9.220;2023-08-06T05:03:23;93371.84;;;12.47;100.00
73600;BME280;61877;48.246;9.220;2023-08-06T05:05:48;93374.47;;;12.44;100.00
73600;BME280;61877;48.246;9.220;2023-08-06T05:08:14;93383.38;;;12.48;100.00
73600;BME280;61877;48.246;9.220;2023-08-06T05:10:42;93382.31;;;12.56;99.62
73600;BME280;61877;48.246;9.220;2023-08-06T05:13:07;93384.78;;;12.68;98.82
73600;BME280;61877;48.246;9.220;2023-08-06T05:15:33;93387.16;;;12.73;97.15
73600;BME280;61877;48.246;9.220;2023-08-06T05:17:58;93381.03;;;12.76;99.81
73600;BME280;61877;48.246;9.220;2023-08-06T05:20:25;93384.41;;;12.69;99.61
73600;BME280;61877;48.246;9.220;2023-08-06T05:22:50;93385.19;;;12.70;100.00
73600;BME280;61877;48.246;9.220;2023-08-06T05:25:16;93372.94;;;12.76;100.00
73600;BME280;61877;48.246;9.220;2023-08-06T05:27:41;93374.81;;;12.72;100.00
73600;BME280;61877;48.246;9.220;2023-08-06T05:30:08;93377.50;;;12.72;100.00
73600;BME280;61877;48.246;9.220;2023-08-06T05:32:33;93378.66;;;12.71;100.00
73600;BME280;61877;48.246;9.220;2023-08-06T05:34:59;93371.44;;;12.78;100.00
73600;BME280;61877;48.246;9.220;2023-08-06T05:37:25;93372.63;;;12.81;100.00
73600;BME280;61877;48.246;9.220;2023-08-06T05:39:51;93370.06;;;12.95;100.00
73600;BME280;61877;48.246;9.220;2023-08-06T05:42:16;93370.22;;;13.06;100.00
73600;BME280;61877;48.246;9.220;2023-08-06T05:44:42;93366.16;;;13.22;98.77
73600;BME280;61877;48.246;9.220;2023-08-06T05:47:10;93375.91;;;13.37;100.00
73600;BME280;61877;48.246;9.220;2023-08-06T05:49:36;93384.22;;;13.62;99.06
73600;BME280;61877;48.246;9.220;2023-08-06T05:52:01;93378.72;;;13.98;97.97
73600;BME280;61877;48.246;9.220;2023-08-06T05:54:28;93389.25;;;14.21;92.33
73600;BME280;61877;48.246;9.220;2023-08-06T05:56:53;93393.69;;;14.47;88.29
73600;BME280;61877;48.246;9.220;2023-08-06T05:59:19;93384.19;;;14.77;89.11
73600;BME280;61877;48.246;9.220;2023-08-06T06:01:44;93386.53;;;14.86;86.30
73600;BME280;61877;48.246;9.220;2023-08-06T06:04:10;93384.91;;;14.71;89.38
73600;BME280;61877;48.246;9.220;2023-08-06T06:06:35;93386.13;;;14.77;89.42
73600;BME280;61877;48.246;9.220;2023-08-06T06:09:00;93382.97;;;14.61;91.92
73600;BME280;61877;48.246;9.220;2023-08-06T06:11:27;93396.66;;;14.31;85.95
73600;BME280;61877;48.246;9.220;2023-08-06T06:13:55;93397.72;;;14.19;86.94
73600;BME280;61877;48.246;9.220;2023-08-06T06:16:20;93403.59;;;14.25;86.20
73600;BME280;61877;48.246;9.220;2023-08-06T06:18:46;93409.50;;;13.94;86.91
73600;BME280;61877;48.246;9.220;2023-08-06T06:21:11;93404.38;;;13.78;86.96
73600;BME280;61877;48.246;9.220;2023-08-06T06:23:36;93414.00;;;13.76;86.26
73600;BME280;61877;48.246;9.220;2023-08-06T06:26:02;93414.31;;;13.67;86.75
73600;BME280;61877;48.246;9.220;2023-08-06T06:28:29;93418.75;;;13.49;86.26
73600;BME280;61877;48.246;9.220;2023-08-06T06:30:59;93418.72;;;13.46;88.84
73600;BME280;61877;48.246;9.220;2023-08-06T06:33:25;93420.78;;;13.59;88.40
73600;BME280;61877;48.246;9.220;2023-08-06T06:35:50;93416.66;;;13.72;87.33
73600;BME280;61877;48.246;9.220;2023-08-06T06:38:16;93420.72;;;14.03;86.09
73600;BME280;61877;48.246;9.220;2023-08-06T06:40:41;93419.81;;;13.85;86.30
73600;BME280;61877;48.246;9.220;2023-08-06T06:43:06;93414.47;;;13.88;86.12
73600;BME280;61877;48.246;9.220;2023-08-06T06:45:33;93417.84;;;13.78;86.37
73600;BME280;61877;48.246;9.220;2023-08-06T06:47:59;93414.47;;;13.88;86.61
73600;BME280;61877;48.246;9.220;2023-08-06T06:50:24;93418.47;;;14.08;85.48
73600;BME280;61877;48.246;9.220;2023-08-06T06:52:49;93415.03;;;14.11;86.10
73600;BME280;61877;48.246;9.220;2023-08-06T06:55:15;93421.97;;;14.12;85.78
73600;BME280;61877;48.246;9.220;2023-08-06T06:57:40;93422.34;;;14.14;84.67
73600;BME280;61877;48.246;9.220;2023-08-06T07:00:06;93430.69;;;13.92;86.53
73600;BME280;61877;48.246;9.220;2023-08-06T07:02:33;93420.44;;;13.64;86.80
73600;BME280;61877;48.246;9.220;2023-08-06T07:04:59;93419.78;;;13.81;90.65
73600;BME280;61877;48.246;9.220;2023-08-06T07:07:24;93417.00;;;13.67;89.00
73600;BME280;61877;48.246;9.220;2023-08-06T07:09:49;93421.63;;;13.70;89.41
73600;BME280;61877;48.246;9.220;2023-08-06T07:12:15;93422.56;;;13.88;89.24
73600;BME280;61877;48.246;9.220;2023-08-06T07:14:40;93430.81;;;14.13;89.41
73600;BME280;61877;48.246;9.220;2023-08-06T07:17:06;93427.19;;;14.39;88.57
73600;BME280;61877;48.246;9.220;2023-08-06T07:19:32;93424.13;;;14.44;85.06
73600;BME280;61877;48.246;9.220;2023-08-06T07:21:58;93443.06;;;14.47;85.86
73600;BME280;61877;48.246;9.220;2023-08-06T07:24:23;93430.25;;;14.34;85.67
73600;BME280;61877;48.246;9.220;2023-08-06T07:26:49;93437.59;;;13.93;85.47
73600;BME280;61877;48.246;9.220;2023-08-06T07:29:14;93435.25;;;13.84;87.52
73600;BME280;61877;48.246;9.220;2023-08-06T07:31:40;93447.16;;;13.83;87.64
73600;BME280;61877;48.246;9.220;2023-08-06T07:34:05;93448.28;;;13.79;90.21
73600;BME280;61877;48.246;9.220;2023-08-06T07:36:32;93446.03;;;13.88;90.57
73600;BME280;61877;48.246;9.220;2023-08-06T07:38:58;93441.84;;;13.90;88.75
73600;BME280;61877;48.246;9.220;2023-08-06T07:41:23;93443.00;;;13.89;87.02
73600;BME280;61877;48.246;9.220;2023-08-06T07:43:49;93436.06;;;13.92;88.69
73600;BME280;61877;48.246;9.220;2023-08-06T07:46:16;93446.53;;;14.00;88.11
73600;BME280;61877;48.246;9.220;2023-08-06T07:48:41;93451.56;;;14.02;86.50
73600;BME280;61877;48.246;9.220;2023-08-06T07:51:06;93448.59;;;14.17;88.28
73600;BME280;61877;48.246;9.220;2023-08-06T07:53:33;93453.38;;;14.38;85.56
73600;BME280;61877;48.246;9.220;2023-08-06T07:55:59;93441.06;;;14.37;83.54
73600;BME280;61877;48.246;9.220;2023-08-06T07:58:25;93441.72;;;14.88;87.78
73600;BME280;61877;48.246;9.220;2023-08-06T08:00:50;93442.97;;;15.12;87.18
73600;BME280;61877;48.246;9.220;2023-08-06T08:03:16;93440.47;;;14.72;81.87
73600;BME280;61877;48.246;9.220;2023-08-06T08:05:42;93446.16;;;14.49;82.54
73600;BME280;61877;48.246;9.220;2023-08-06T08:08:08;93445.47;;;14.12;86.26
73600;BME280;61877;48.246;9.220;2023-08-06T08:10:38;93449.34;;;14.11;86.52
73600;BME280;61877;48.246;9.220;2023-08-06T08:13:03;93450.72;;;13.91;89.99
73600;BME280;61877;48.246;9.220;2023-08-06T08:15:29;93451.69;;;13.72;87.00
73600;BME280;61877;48.246;9.220;2023-08-06T08:17:55;93447.69;;;13.56;90.13
73600;BME280;61877;48.246;9.220;2023-08-06T08:20:21;93445.25;;;13.44;89.59
73600;BME280;61877;48.246;9.220;2023-08-06T08:22:46;93447.56;;;13.45;90.59
73600;BME280;61877;48.246;9.220;2023-08-06T08:25:12;93449.28;;;13.60;94.36
73600;BME280;61877;48.246;9.220;2023-08-06T08:27:43;93458.69;;;13.40;88.96
73600;BME280;61877;48.246;9.220;2023-08-06T08:30:09;93461.94;;;13.56;92.46
73600;BME280;61877;48.246;9.220;2023-08-06T08:32:36;93458.59;;;13.33;91.33
73600;BME280;61877;48.246;9.220;2023-08-06T08:35:01;93461.09;;;13.49;94.10
73600;BME280;61877;48.246;9.220;2023-08-06T08:37:27;93458.06;;;13.54;95.70
73600;BME280;61877;48.246;9.220;2023-08-06T08:39:52;93453.88;;;13.56;92.42
73600;BME280;61877;48.246;9.220;2023-08-06T08:42:18;93472.34;;;13.58;93.07
73600;BME280;61877;48.246;9.220;2023-08-06T08:44:45;93466.22;;;13.24;91.33
73600;BME280;61877;48.246;9.220;2023-08-06T08:47:11;93461.75;;;13.39;92.50
73600;BME280;61877;48.246;9.220;2023-08-06T08:49:38;93471.94;;;13.56;95.12
73600;BME280;61877;48.246;9.220;2023-08-06T08:52:04;93475.22;;;13.75;91.49
73600;BME280;61877;48.246;9.220;2023-08-06T08:54:30;93473.69;;;13.78;91.64
73600;BME280;61877;48.246;9.220;2023-08-06T08:56:57;93480.41;;;13.94;88.94
73600;BME280;61877;48.246;9.220;2023-08-06T08:59:23;93476.94;;;13.94;89.69
73600;BME280;61877;48.246;9.220;2023-08-06T09:01:54;93486.59;;;13.58;87.44
73600;BME280;61877;48.246;9.220;2023-08-06T09:04:21;93484.03;;;13.72;88.54
73600;BME280;61877;48.246;9.220;2023-08-06T09:06:48;93488.22;;;14.10;89.86
73600;BME280;61877;48.246;9.220;2023-08-06T09:09:17;93481.34;;;14.19;87.89
73600;BME280;61877;48.246;9.220;2023-08-06T09:11:47;93480.59;;;14.19;85.90
73600;BME280;61877;48.246;9.220;2023-08-06T09:14:13;93484.69;;;13.99;86.82
73600;BME280;61877;48.246;9.220;2023-08-06T09:16:39;93491.72;;;14.10;88.50
73600;BME280;61877;48.246;9.220;2023-08-06T09:19:09;93497.09;;;14.10;89.42
73600;BME280;61877;48.246;9.220;2023-08-06T09:21:37;93494.06;;;14.15;90.29
73600;BME280;61877;48.246;9.220;2023-08-06T09:24:07;93490.59;;;14.18;89.16
73600;BME280;61877;48.246;9.220;2023-08-06T09:26:33;93491.91;;;13.91;91.02
73600;BME280;61877;48.246;9.220;2023-08-06T09:28:59;93497.59;;;13.79;91.36
73600;BME280;61877;48.246;9.220;2023-08-06T09:31:25;93501.72;;;14.10;91.00
73600;BME280;61877;48.246;9.220;2023-08-06T09:33:59;93496.25;;;14.03;91.12
73600;BME280;61877;48.246;9.220;2023-08-06T09:36:27;93497.78;;;14.00;92.96
73600;BME280;61877;48.246;9.220;2023-08-06T09:38:52;93485.06;;;13.97;92.35
73600;BME280;61877;48.246;9.220;2023-08-06T09:41:26;93489.97;;;14.32;96.26
73600;BME280;61877;48.246;9.220;2023-08-06T09:43:52;93486.84;;;14.27;88.64
73600;BME280;61877;48.246;9.220;2023-08-06T09:46:17;93487.56;;;14.78;91.02
73600;BME280;61877;48.246;9.220;2023-08-06T09:48:45;93497.97;;;14.76;86.06
73600;BME280;61877;48.246;9.220;2023-08-06T09:51:10;93495.78;;;14.95;86.63
73600;BME280;61877;48.246;9.220;2023-08-06T09:53:40;93486.56;;;15.03;84.53
73600;BME280;61877;48.246;9.220;2023-08-06T09:56:06;93494.69;;;15.07;81.21
73600;BME280;61877;48.246;9.220;2023-08-06T09:58:32;93508.06;;;14.86;82.56
73600;BME280;61877;48.246;9.220;2023-08-06T10:00:58;93503.00;;;14.77;81.41
73600;BME280;61877;48.246;9.220;2023-08-06T10:03:24;93499.81;;;14.61;82.02
73600;BME280;61877;48.246;9.220;2023-08-06T10:05:50;93517.75;;;14.36;83.81
73600;BME280;61877;48.246;9.220;2023-08-06T10:08:16;93511.13;;;14.27;86.67
73600;BME280;61877;48.246;9.220;2023-08-06T10:10:43;93506.97;;;14.40;85.47
73600;BME280;61877;48.246;9.220;2023-08-06T10:13:10;93506.50;;;14.27;85.72
73600;BME280;61877;48.246;9.220;2023-08-06T10:15:36;93508.16;;;14.39;85.48
73600;BME280;61877;48.246;9.220;2023-08-06T10:18:02;93509.44;;;14.11;85.58
73600;BME280;61877;48.246;9.220;2023-08-06T10:20:33;93508.56;;;14.00;86.35
73600;BME280;61877;48.246;9.220;2023-08-06T10:23:04;93510.78;;;13.91;88.88
73600;BME280;61877;48.246;9.220;2023-08-06T10:25:33;93517.53;;;13.71;88.39
73600;BME280;61877;48.246;9.220;2023-08-06T10:28:00;93517.34;;;13.54;90.83
73600;BME280;61877;48.246;9.220;2023-08-06T10:30:27;93525.63;;;13.38;91.42
73600;BME280;61877;48.246;9.220;2023-08-06T10:32:54;93535.16;;;13.29;92.75
73600;BME280;61877;48.246;9.220;2023-08-06T10:35:30;93533.97;;;13.26;93.00
73600;BME280;61877;48.246;9.220;2023-08-06T10:37:58;93533.38;;;13.10;92.79
73600;BME280;61877;48.246;9.220;2023-08-06T10:40:24;93525.88;;;12.96;93.40
73600;BME280;61877;48.246;9.220;2023-08-06T10:42:50;93530.69;;;13.10;96.61
73600;BME280;61877;48.246;9.220;2023-08-06T10:45:17;93528.09;;;13.17;93.59
73600;BME280;61877;48.246;9.220;2023-08-06T10:47:44;93526.28;;;13.28;92.77
73600;BME280;61877;48.246;9.220;2023-08-06T10:50:12;93531.75;;;13.35;93.19
73600;BME280;61877;48.246;9.220;2023-08-06T10:52:37;93532.25;;;13.44;93.06
73600;BME280;61877;48.246;9.220;2023-08-06T10:55:04;93538.66;;;13.33;90.64
73600;BME280;61877;48.246;9.220;2023-08-06T10:57:31;93527.63;;;13.45;91.07
73600;BME280;61877;48.246;9.220;2023-08-06T10:59:56;93527.72;;;13.52;90.99
73600;BME280;61877;48.246;9.220;2023-08-06T11:02:23;93529.75;;;13.62;89.66
73600;BME280;61877;48.246;9.220;2023-08-06T11:04:48;93528.28;;;13.68;85.63
73600;BME280;61877;48.246;9.220;2023-08-06T11:07:14;93537.59;;;13.74;87.52
73600;BME280;61877;48.246;9.220;2023-08-06T11:09:39;93533.38;;;13.76;89.86
73600;BME280;61877;48.246;9.220;2023-08-06T11:12:09;93533.03;;;13.81;89.72
73600;BME280;61877;48.246;9.220;2023-08-06T11:14:35;93538.28;;;13.67;88.56
73600;BME280;61877;48.246;9.220;2023-08-06T11:17:00;93531.34;;;13.66;88.46
73600;BME280;61877;48.246;9.220;2023-08-06T11:19:27;93536.00;;;13.69;90.31
73600;BME280;61877;48.246;9.220;2023-08-06T11:21:54;93535.44;;;13.53;89.47
73600;BME280;61877;48.246;9.220;2023-08-06T11:24:19;93531.78;;;13.72;89.75
73600;BME280;61877;48.246;9.220;2023-08-06T11:26:45;93542.44;;;13.98;91.14
73600;BME280;61877;48.246;9.220;2023-08-06T11:29:10;93535.66;;;14.11;89.79
73600;BME280;61877;48.246;9.220;2023-08-06T11:31:36;93537.75;;;14.32;87.07
73600;BME280;61877;48.246;9.220;2023-08-06T11:34:01;93538.97;;;14.34;83.70
73600;BME280;61877;48.246;9.220;2023-08-06T11:36:32;93545.09;;;14.35;86.12
73600;BME280;61877;48.246;9.220;2023-08-06T11:38:57;93540.88;;;14.34;87.39
73600;BME280;61877;48.246;9.220;2023-08-06T11:41:23;93542.91;;;14.47;87.17
73600;BME280;61877;48.246;9.220;2023-08-06T11:43:48;93548.44;;;14.65;86.10
73600;BME280;61877;48.246;9.220;2023-08-06T11:46:14;93547.44;;;14.87;84.85
73600;BME280;61877;48.246;9.220;2023-08-06T11:48:51;93546.66;;;14.86;83.65
73600;BME280;61877;48.246;9.220;2023-08-06T11:51:16;93542.53;;;14.49;85.22
73600;BME280;61877;48.246;9.220;2023-08-06T11:53:48;93552.53;;;14.48;85.33
73600;BME280;61877;48.246;9.220;2023-08-06T11:56:14;93537.59;;;14.61;85.98
73600;BME280;61877;48.246;9.220;2023-08-06T11:58:40;93554.53;;;14.55;86.42
73600;BME280;61877;48.246;9.220;2023-08-06T12:01:06;93554.63;;;14.69;87.46
73600;BME280;61877;48.246;9.220;2023-08-06T12:03:31;93559.53;;;14.56;87.68
73600;BME280;61877;48.246;9.220;2023-08-06T12:05:57;93566.00;;;14.45;85.35
73600;BME280;61877;48.246;9.220;2023-08-06T12:08:26;93578.84;;;14.18;85.78
73600;BME280;61877;48.246;9.220;2023-08-06T12:10:53;93578.19;;;14.28;86.19
73600;BME280;61877;48.246;9.220;2023-08-06T12:13:19;93581.53;;;14.58;84.00
73600;BME280;61877;48.246;9.220;2023-08-06T12:15:44;93581.06;;;14.46;87.34
73600;BME280;61877;48.246;9.220;2023-08-06T12:18:10;93580.03;;;14.61;85.34
73600;BME280;61877;48.246;9.220;2023-08-06T12:20:35;93590.72;;;14.47;85.14
73600;BME280;61877;48.246;9.220;2023-08-06T12:23:01;93601.97;;;14.15;85.06
73600;BME280;61877;48.246;9.220;2023-08-06T12:25:27;93587.00;;;13.85;87.42
73600;BME280;61877;48.246;9.220;2023-08-06T12:27:53;93603.78;;;13.71;89.16
73600;BME280;61877;48.246;9.220;2023-08-06T12:30:19;93608.69;;;13.62;87.21
73600;BME280;61877;48.246;9.220;2023-08-06T12:32:44;93610.94;;;13.57;88.91
73600;BME280;61877;48.246;9.220;2023-08-06T12:35:10;93615.53;;;13.53;87.15
73600;BME280;61877;48.246;9.220;2023-08-06T12:37:35;93609.34;;;13.85;86.28
73600;BME280;61877;48.246;9.220;2023-08-06T12:40:01;93620.34;;;14.06;86.68
73600;BME280;61877;48.246;9.220;2023-08-06T12:42:26;93626.47;;;14.37;85.55
73600;BME280;61877;48.246;9.220;2023-08-06T12:44:53;93622.81;;;14.18;84.27
73600;BME280;61877;48.246;9.220;2023-08-06T12:47:19;93637.53;;;13.91;86.12
73600;BME280;61877;48.246;9.220;2023-08-06T12:49:44;93646.03;;;13.60;85.45